Time;durP1;ratioP1;P1;durP2;ratioP2;P2;SDS_P1;SDS_P2;PMS_P1;PMS_P2;Temp;Humidity;BMP_temperature;BMP_pressure;BME280_temperature;BME280_humidity;BME280_pressure;Samples;Min_cycle;Max_cycle;Signal;HPM_P1;HPM_P2
2023/09/23 00:00:13;;;;;;;25.23;5.57;;;;;;;14.15;100.00;97683.63;2602122;28;20050;-89
2023/09/23 00:01:47;;;;;;;15.38;5.35;;;;;;;14.13;100.00;97684.56;2596853;28;20057;-90
2023/09/23 00:03:04;;;;;;;101.53;8.25;;;;;;;14.11;100.00;97681.19;2601015;28;20053;-90
2023/09/23 00:04:20;;;;;;;129.48;8.93;;;;;;;14.17;100.00;97679.13;2600515;28;20042;-89
2023/09/23 00:05:39;;;;;;;73.38;6.53;;;;;;;14.16;100.00;97682.69;2600393;28;20099;-90
2023/09/23 00:06:54;;;;;;;59.63;7.30;;;;;;;14.12;100.00;97667.09;2592102;28;20054;-89
2023/09/23 00:08:10;;;;;;;121.28;11.43;;;;;;;14.09;100.00;97669.91;2597622;28;20060;-89
2023/09/23 00:09:25;;;;;;;97.72;8.38;;;;;;;14.02;100.00;97665.88;2600602;28;20886;-89
2023/09/23 00:10:41;;;;;;;113.57;8.18;;;;;;;13.93;100.00;97661.97;2603069;28;20140;-89
2023/09/23 00:11:57;;;;;;;166.93;11.35;;;;;;;13.90;100.00;97669.19;2603322;28;20071;-89
2023/09/23 00:13:12;;;;;;;178.35;9.27;;;;;;;13.90;100.00;97663.91;2601179;28;20045;-89
2023/09/23 00:14:28;;;;;;;52.00;6.45;;;;;;;13.84;100.00;97678.28;2590270;28;20045;-89
2023/09/23 00:15:44;;;;;;;62.53;6.60;;;;;;;13.82;100.00;97685.38;2597288;28;20127;-89
2023/09/23 00:16:59;;;;;;;59.28;7.35;;;;;;;13.77;100.00;97696.16;2602122;28;20049;-89
2023/09/23 00:18:15;;;;;;;74.35;7.93;;;;;;;13.76;100.00;97691.84;2591239;28;20080;-89
2023/09/23 00:19:34;;;;;;;19.77;5.72;;;;;;;13.73;100.00;97685.88;2593447;28;20152;-89
2023/09/23 00:20:50;;;;;;;26.23;6.47;;;;;;;13.64;100.00;97668.81;2601625;28;20052;-90
2023/09/23 00:22:05;;;;;;;11.35;5.45;;;;;;;13.72;100.00;97666.63;2602829;28;20056;-90
2023/09/23 00:23:21;;;;;;;8.60;5.30;;;;;;;13.55;100.00;97655.22;2600104;28;20425;-89
2023/09/23 00:24:37;;;;;;;8.73;4.75;;;;;;;13.69;100.00;97654.50;2589965;28;20498;-90
2023/09/23 00:25:53;;;;;;;8.45;4.80;;;;;;;13.79;100.00;97667.13;2596287;28;20064;-89
2023/09/23 00:27:09;;;;;;;6.38;4.68;;;;;;;13.78;100.00;97673.31;2604643;28;20052;-89
2023/09/23 00:28:25;;;;;;;7.68;5.43;;;;;;;13.75;100.00;97684.84;2592963;28;20042;-89
2023/09/23 00:29:41;;;;;;;9.30;5.10;;;;;;;13.80;100.00;97681.97;2594305;28;20075;-89
2023/09/23 00:31:11;;;;;;;7.90;4.20;;;;;;;13.93;100.00;97677.75;2601432;28;20160;-89
2023/09/23 00:32:27;;;;;;;6.05;4.05;;;;;;;13.87;100.00;97674.59;2599589;28;20132;-89
2023/09/23 00:33:43;;;;;;;7.72;4.30;;;;;;;13.85;100.00;97661.56;2601411;28;20052;-89
2023/09/23 00:34:59;;;;;;;5.90;3.83;;;;;;;13.92;100.00;97665.53;2601648;28;20079;-89
2023/09/23 00:36:15;;;;;;;7.60;4.32;;;;;;;13.89;100.00;97670.97;2602451;28;20076;-89
2023/09/23 00:37:33;;;;;;;8.70;4.47;;;;;;;13.99;100.00;97676.59;2591726;28;20372;-90
2023/09/23 00:38:48;;;;;;;54.20;6.15;;;;;;;13.94;100.00;97682.09;2595658;28;20069;-89
2023/09/23 00:40:05;;;;;;;10.52;4.60;;;;;;;13.83;100.00;97681.84;2602721;28;20080;-89
2023/09/23 00:41:20;;;;;;;8.98;3.90;;;;;;;13.78;100.00;97689.13;2602241;28;20046;-89
2023/09/23 00:42:38;;;;;;;7.82;4.15;;;;;;;13.69;100.00;97686.06;2590985;28;20050;-89
2023/09/23 00:43:54;;;;;;;8.40;4.20;;;;;;;13.65;100.00;97687.13;2583946;28;20053;-89
2023/09/23 00:45:14;;;;;;;88.25;6.93;;;;;;;13.67;100.00;97687.91;2585732;28;20108;-89
2023/09/23 00:46:30;;;;;;;68.32;6.35;;;;;;;13.70;100.00;97686.88;2594585;28;20108;-89
2023/09/23 00:47:46;;;;;;;110.68;6.80;;;;;;;13.73;100.00;97691.16;2600103;28;20148;-89
2023/09/23 00:49:01;;;;;;;92.25;6.35;;;;;;;13.75;100.00;97689.28;2599905;28;20045;-89
2023/09/23 00:50:20;;;;;;;30.50;5.32;;;;;;;13.74;100.00;97688.41;2591691;28;20045;-89
2023/09/23 00:51:37;;;;;;;29.13;4.80;;;;;;;13.72;100.00;97689.44;2595892;28;20052;-90
2023/09/23 00:52:53;;;;;;;41.55;5.32;;;;;;;13.68;100.00;97686.97;2591760;28;21249;-89
2023/09/23 00:54:08;;;;;;;99.68;7.22;;;;;;;13.71;100.00;97683.31;2595576;28;20126;-89
2023/09/23 00:55:24;;;;;;;113.88;7.35;;;;;;;13.72;100.00;97689.44;2604326;28;20041;-89
2023/09/23 00:56:41;;;;;;;28.25;5.18;;;;;;;13.66;100.00;97682.72;2592580;28;20050;-89
2023/09/23 00:58:00;;;;;;;43.83;5.43;;;;;;;13.62;100.00;97681.19;2597993;28;20041;-89
2023/09/23 00:59:17;;;;;;;46.33;5.68;;;;;;;13.62;100.00;97686.44;2602513;28;20542;-90
2023/09/23 01:00:37;;;;;;;35.10;4.68;;;;;;;13.63;100.00;97696.06;2591534;28;20335;-89
2023/09/23 01:01:56;;;;;;;36.92;5.38;;;;;;;13.62;100.00;97695.19;2594939;28;20053;-89
2023/09/23 01:03:11;;;;;;;42.92;4.85;;;;;;;13.73;100.00;97702.50;2604786;28;20060;-89
2023/09/23 01:04:27;;;;;;;12.48;4.93;;;;;;;13.61;100.00;97698.75;2600056;28;20585;-90
2023/09/23 01:05:44;;;;;;;37.13;5.78;;;;;;;13.72;100.00;97700.81;2602066;28;20045;-89
2023/09/23 01:07:02;;;;;;;20.77;5.00;;;;;;;13.74;100.00;97698.94;2601387;28;20056;-89
2023/09/23 01:08:22;;;;;;;12.77;4.30;;;;;;;13.77;100.00;97706.69;2592617;28;20789;-90
2023/09/23 01:09:38;;;;;;;5.07;4.22;;;;;;;13.63;100.00;97702.16;2590077;28;20049;-89
2023/09/23 01:10:53;;;;;;;7.32;5.03;;;;;;;13.57;100.00;97705.09;2595247;28;20100;-89
2023/09/23 01:12:09;;;;;;;6.47;4.55;;;;;;;13.53;100.00;97701.78;2602509;28;20111;-90
2023/09/23 01:13:29;;;;;;;7.03;4.55;;;;;;;13.44;100.00;97691.72;2599369;28;20045;-90
2023/09/23 01:14:45;;;;;;;8.68;4.78;;;;;;;13.43;100.00;97697.88;2603228;28;20041;-89
2023/09/23 01:16:06;;;;;;;5.93;4.60;;;;;;;13.41;100.00;97697.13;2603885;28;20127;-89
2023/09/23 01:17:21;;;;;;;7.38;4.53;;;;;;;13.47;100.00;97699.44;2587777;28;20537;-89
2023/09/23 01:18:38;;;;;;;6.88;4.57;;;;;;;13.43;100.00;97700.53;2599621;28;20045;-89
2023/09/23 01:19:54;;;;;;;6.03;4.57;;;;;;;13.40;100.00;97698.88;2601858;28;20044;-89
2023/09/23 01:21:10;;;;;;;5.45;4.28;;;;;;;13.41;100.00;97702.38;2601109;28;20085;-89
2023/09/23 01:22:27;;;;;;;7.00;4.57;;;;;;;13.41;100.00;97700.63;2602916;28;20092;-90
2023/09/23 01:23:44;;;;;;;5.68;4.10;;;;;;;13.35;100.00;97702.72;2600197;28;20057;-89
2023/09/23 01:24:59;;;;;;;5.82;4.57;;;;;;;13.21;100.00;97706.03;2601650;28;20072;-90
2023/09/23 01:26:16;;;;;;;7.65;4.28;;;;;;;13.14;100.00;97701.09;2602159;28;20052;-89
2023/09/23 01:27:35;;;;;;;6.28;4.40;;;;;;;13.28;100.00;97699.53;2589875;28;20525;-89
2023/09/23 01:28:50;;;;;;;5.32;4.30;;;;;;;13.30;100.00;97696.81;2594965;28;20045;-89
2023/09/23 01:30:06;;;;;;;5.45;4.22;;;;;;;13.31;100.00;97691.50;2603353;28;20053;-89
2023/09/23 01:31:25;;;;;;;5.72;4.13;;;;;;;13.41;100.00;97697.13;2595858;28;20481;-90
2023/09/23 01:32:45;;;;;;;6.25;3.92;;;;;;;13.34;100.00;97695.72;2602045;28;20050;-92
2023/09/23 01:34:01;;;;;;;6.05;3.95;;;;;;;13.50;100.00;97695.81;2602599;28;20045;-89
2023/09/23 01:35:18;;;;;;;8.15;4.60;;;;;;;13.46;100.00;97687.25;2599470;28;20291;-89
2023/09/23 01:36:37;;;;;;;5.97;4.28;;;;;;;13.42;100.00;97691.81;2599275;28;20053;-89
2023/09/23 01:37:53;;;;;;;8.35;5.30;;;;;;;13.52;100.00;97675.56;2602763;28;20049;-89
2023/09/23 01:39:09;;;;;;;19.38;5.18;;;;;;;13.59;100.00;97676.94;2602272;28;20132;-90
2023/09/23 01:40:29;;;;;;;65.38;6.18;;;;;;;13.58;100.00;97685.78;2603873;28;20154;-89
2023/09/23 01:41:44;;;;;;;63.67;5.38;;;;;;;13.53;100.00;97680.75;2611758;28;20038;-90
2023/09/23 01:43:00;;;;;;;26.00;4.75;;;;;;;13.42;100.00;97694.44;2610269;28;20072;-91
2023/09/23 01:44:16;;;;;;;39.72;5.88;;;;;;;13.41;100.00;97695.34;2613393;28;20643;-90
2023/09/23 01:45:32;;;;;;;22.23;4.93;;;;;;;13.35;100.00;97700.91;2603132;28;20081;-90
2023/09/23 01:46:49;;;;;;;55.35;5.45;;;;;;;13.49;100.00;97702.88;2605065;28;20071;-89
2023/09/23 01:48:05;;;;;;;48.80;5.72;;;;;;;13.44;100.00;97701.41;2602386;28;20088;-89
2023/09/23 01:49:20;;;;;;;44.00;4.10;;;;;;;13.44;100.00;97707.50;2591446;28;20041;-89
2023/09/23 01:50:36;;;;;;;69.43;5.05;;;;;;;13.59;100.00;97708.50;2595320;28;20045;-89
2023/09/23 01:51:52;;;;;;;36.97;4.32;;;;;;;13.57;100.00;97707.75;2601000;28;20042;-89
2023/09/23 01:53:08;;;;;;;15.80;3.70;;;;;;;13.40;100.00;97708.56;2599418;28;20045;-91
2023/09/23 01:54:24;;;;;;;36.58;5.68;;;;;;;13.36;100.00;97710.50;2590492;28;20139;-90
2023/09/23 01:55:40;;;;;;;26.42;4.35;;;;;;;13.44;100.00;97711.94;2594532;28;20053;-89
2023/09/23 01:56:55;;;;;;;23.10;3.92;;;;;;;13.49;100.00;97729.19;2599121;28;20042;-91
2023/09/23 01:58:11;;;;;;;5.20;3.90;;;;;;;13.39;100.00;97726.13;2596994;28;20194;-89
2023/09/23 01:59:26;;;;;;;8.88;4.30;;;;;;;13.26;100.00;97725.03;2600662;28;20046;-90
2023/09/23 02:00:42;;;;;;;8.20;4.53;;;;;;;13.21;100.00;97734.94;2598350;28;20068;-89
2023/09/23 02:01:58;;;;;;;21.65;4.32;;;;;;;13.17;100.00;97746.53;2600106;28;20046;-89
2023/09/23 02:03:15;;;;;;;13.40;4.07;;;;;;;13.14;100.00;97739.66;2600935;28;20050;-89
2023/09/23 02:04:30;;;;;;;15.45;4.60;;;;;;;13.07;100.00;97739.09;2598283;28;20081;-90
2023/09/23 02:05:46;;;;;;;37.90;5.28;;;;;;;13.11;100.00;97751.16;2599068;28;20517;-89
2023/09/23 02:07:02;;;;;;;22.13;4.78;;;;;;;12.99;100.00;97744.75;2598514;28;20057;-89
2023/09/23 02:08:18;;;;;;;21.60;4.38;;;;;;;12.97;100.00;97741.34;2596405;28;20117;-88
2023/09/23 02:09:34;;;;;;;34.40;4.80;;;;;;;13.20;100.00;97749.88;2589772;28;20497;-89
2023/09/23 02:10:52;;;;;;;19.75;4.82;;;;;;;13.16;100.00;97737.78;2579907;28;20120;-90
2023/09/23 02:12:07;;;;;;;27.00;4.55;;;;;;;13.06;100.00;97742.66;2586299;28;20096;-89
2023/09/23 02:13:23;;;;;;;6.35;4.47;;;;;;;13.03;100.00;97744.59;2593985;28;20112;-89
2023/09/23 02:14:41;;;;;;;31.05;4.13;;;;;;;13.16;100.00;97752.72;2583564;28;20045;-89
2023/09/23 02:15:58;;;;;;;8.07;3.78;;;;;;;13.13;100.00;97748.47;2586264;28;20513;-89
2023/09/23 02:17:14;;;;;;;47.50;5.53;;;;;;;13.09;100.00;97750.38;2594472;28;20513;-90
2023/09/23 02:18:29;;;;;;;33.67;3.40;;;;;;;13.12;100.00;97754.66;2591271;28;20049;-89
2023/09/23 02:19:46;;;;;;;44.03;4.10;;;;;;;13.02;100.00;97745.50;2593494;28;20849;-90
2023/09/23 02:21:02;;;;;;;26.13;2.80;;;;;;;13.04;100.00;97744.53;2590990;28;20144;-89
2023/09/23 02:22:18;;;;;;;8.57;2.60;;;;;;;12.92;100.00;97753.00;2593093;28;20120;-90
2023/09/23 02:23:34;;;;;;;46.28;3.40;;;;;;;12.99;100.00;97755.25;2593636;28;20053;-89
2023/09/23 02:24:49;;;;;;;35.90;3.30;;;;;;;12.90;100.00;97755.69;2593904;28;20056;-89
2023/09/23 02:26:06;;;;;;;43.47;3.30;;;;;;;12.82;100.00;97753.44;2591299;28;20112;-89
2023/09/23 02:27:22;;;;;;;7.22;2.80;;;;;;;12.79;100.00;97750.97;2592899;28;20055;-89
2023/09/23 02:28:38;;;;;;;27.92;2.97;;;;;;;12.85;100.00;97755.06;2592459;28;20506;-89
2023/09/23 02:29:54;;;;;;;16.63;2.90;;;;;;;12.71;100.00;97756.59;2591725;28;20045;-89
2023/09/23 02:31:10;;;;;;;34.50;4.18;;;;;;;12.75;100.00;97761.69;2592138;28;20538;-90
2023/09/23 02:32:25;;;;;;;24.13;2.95;;;;;;;12.73;100.00;97767.03;2592940;28;20099;-89
2023/09/23 02:33:43;;;;;;;19.15;2.90;;;;;;;12.70;100.00;97767.16;2584092;28;20065;-89
2023/09/23 02:34:58;;;;;;;19.00;2.90;;;;;;;12.67;100.00;97770.81;2587383;28;20502;-90
2023/09/23 02:36:14;;;;;;;56.08;4.38;;;;;;;12.73;100.00;97782.78;2583877;28;20084;-89
2023/09/23 02:37:30;;;;;;;7.95;2.70;;;;;;;12.63;100.00;97768.38;2587524;28;20053;-89
2023/09/23 02:38:45;;;;;;;27.45;3.53;;;;;;;12.55;100.00;97771.38;2592517;28;20045;-89
2023/09/23 02:40:01;;;;;;;27.00;3.55;;;;;;;12.87;100.00;97782.13;2591951;28;20436;-88
2023/09/23 02:41:17;;;;;;;29.25;3.38;;;;;;;12.85;100.00;97781.34;2593422;28;20500;-89
2023/09/23 02:42:32;;;;;;;22.98;3.72;;;;;;;12.71;100.00;97789.88;2581057;28;20046;-89
2023/09/23 02:43:48;;;;;;;26.88;4.32;;;;;;;12.65;100.00;97783.16;2587176;28;20092;-89
2023/09/23 02:45:05;;;;;;;11.80;3.38;;;;;;;12.57;100.00;97783.53;2581066;28;20060;-88
2023/09/23 02:46:21;;;;;;;42.17;5.03;;;;;;;12.50;100.00;97779.47;2587332;28;20148;-89
2023/09/23 02:47:37;;;;;;;22.13;3.95;;;;;;;12.58;100.00;97781.72;2596313;28;20075;-89
2023/09/23 02:48:54;;;;;;;26.27;3.50;;;;;;;12.64;100.00;97781.47;2610187;28;20045;-90
2023/09/23 02:50:10;;;;;;;36.35;3.80;;;;;;;12.73;100.00;97785.41;2609712;28;20071;-88
2023/09/23 02:51:26;;;;;;;21.58;3.20;;;;;;;12.68;100.00;97787.38;2610511;28;20210;-89
2023/09/23 02:52:44;;;;;;;8.70;3.17;;;;;;;12.49;100.00;97775.13;2609957;28;20045;-89
2023/09/23 02:53:59;;;;;;;14.52;3.30;;;;;;;12.41;100.00;97786.00;2598553;28;20152;-89
2023/09/23 02:55:18;;;;;;;7.50;2.92;;;;;;;12.37;100.00;97786.19;2594185;28;20367;-88
2023/09/23 02:56:34;;;;;;;14.70;2.92;;;;;;;12.50;100.00;97787.34;2603986;28;20053;-89
2023/09/23 02:57:51;;;;;;;15.30;3.13;;;;;;;12.54;100.00;97794.13;2609677;28;20048;-89
2023/09/23 02:59:21;;;;;;;8.07;2.65;;;;;;;12.47;100.00;97792.75;2610416;28;20068;-88
2023/09/23 03:00:37;;;;;;;4.82;2.70;;;;;;;12.37;100.00;97794.06;2609896;28;20087;-89
2023/09/23 03:01:53;;;;;;;6.68;2.50;;;;;;;12.42;100.00;97792.94;2610581;28;20045;-90
2023/09/23 03:03:18;;;;;;;5.35;2.85;;;;;;;12.31;100.00;97802.25;2610025;28;20408;-90
2023/09/23 03:04:35;;;;;;;4.38;2.42;;;;;;;12.24;100.00;97788.53;2610309;28;20044;-89
2023/09/23 03:05:57;;;;;;;4.13;2.70;;;;;;;12.17;100.00;97793.22;2609867;28;20129;-88
2023/09/23 03:07:12;;;;;;;3.45;2.63;;;;;;;12.10;100.00;97783.91;2610241;28;20045;-89
2023/09/23 03:08:30;;;;;;;4.00;3.10;;;;;;;12.05;100.00;97783.28;2610069;28;20079;-89
2023/09/23 03:09:55;;;;;;;4.18;2.97;;;;;;;12.07;100.00;97786.66;2610219;28;20489;-89
2023/09/23 03:11:12;;;;;;;5.47;2.85;;;;;;;12.19;100.00;97790.50;2609790;28;20550;-89
2023/09/23 03:12:38;;;;;;;4.80;2.45;;;;;;;12.08;100.00;97784.00;2610287;28;20400;-88
2023/09/23 03:13:54;;;;;;;3.30;2.65;;;;;;;12.12;100.00;97790.78;2609659;28;20051;-88
2023/09/23 03:15:16;;;;;;;2.92;2.40;;;;;;;12.07;100.00;97795.38;2609919;28;20131;-88
2023/09/23 03:16:33;;;;;;;3.65;2.45;;;;;;;12.02;100.00;97796.53;2609925;28;20068;-90
2023/09/23 03:17:51;;;;;;;3.78;2.28;;;;;;;12.00;100.00;97794.78;2609935;28;20563;-89
2023/09/23 03:19:15;;;;;;;3.13;2.53;;;;;;;11.99;100.00;97797.47;2609789;28;20375;-89
2023/09/23 03:20:31;;;;;;;5.55;2.60;;;;;;;11.98;100.00;97808.91;2609880;28;20131;-89
2023/09/23 03:21:46;;;;;;;7.07;2.88;;;;;;;11.90;100.00;97809.22;2609651;28;20053;-88
2023/09/23 03:23:03;;;;;;;2.83;2.30;;;;;;;11.96;100.00;97814.19;2610295;28;20053;-89
2023/09/23 03:24:18;;;;;;;2.58;2.30;;;;;;;11.93;100.00;97811.72;2609569;28;20076;-88
2023/09/23 03:25:41;;;;;;;3.15;2.20;;;;;;;11.93;100.00;97816.97;2609930;28;20049;-89
2023/09/23 03:27:00;;;;;;;2.75;2.03;;;;;;;11.90;100.00;97832.84;2598013;28;20164;-89
2023/09/23 03:28:16;;;;;;;2.42;1.80;;;;;;;11.84;100.00;97828.72;2603567;28;20064;-88
2023/09/23 03:29:32;;;;;;;3.20;2.38;;;;;;;11.82;100.00;97835.78;2609541;28;20088;-89
2023/09/23 03:30:49;;;;;;;2.80;2.22;;;;;;;11.81;100.00;97841.09;2598329;28;20461;-89
2023/09/23 03:32:05;;;;;;;3.13;2.20;;;;;;;11.80;100.00;97849.88;2602729;28;20060;-88
2023/09/23 03:33:21;;;;;;;2.70;2.15;;;;;;;11.80;100.00;97849.88;2609914;28;20048;-89
2023/09/23 03:34:37;;;;;;;2.30;2.00;;;;;;;11.83;100.00;97852.38;2609363;28;20204;-89
2023/09/23 03:35:54;;;;;;;3.20;2.33;;;;;;;11.85;100.00;97845.28;2609956;28;20542;-89
2023/09/23 03:37:09;;;;;;;2.65;2.28;;;;;;;11.90;100.00;97850.34;2609650;28;20052;-89
2023/09/23 03:38:25;;;;;;;3.25;2.22;;;;;;;11.86;100.00;97849.59;2609586;28;20044;-88
2023/09/23 03:39:41;;;;;;;3.08;2.35;;;;;;;11.92;100.00;97853.75;2609612;28;20473;-89
2023/09/23 03:41:02;;;;;;;3.03;2.30;;;;;;;11.89;100.00;97836.38;2598488;28;20088;-89
2023/09/23 03:42:18;;;;;;;2.85;2.15;;;;;;;12.04;100.00;97850.63;2592192;28;20064;-90
2023/09/23 03:43:33;;;;;;;3.10;2.25;;;;;;;12.16;100.00;97859.75;2603027;28;20052;-89
2023/09/23 03:44:48;;;;;;;2.58;1.90;;;;;;;12.18;100.00;97852.66;2609581;28;20049;-88
2023/09/23 03:46:11;;;;;;;6.07;1.95;;;;;;;12.19;100.00;97858.75;2609749;28;20049;-89
2023/09/23 03:47:26;;;;;;;5.40;2.25;;;;;;;12.18;100.00;97867.53;2598351;28;20696;-89
2023/09/23 03:48:43;;;;;;;2.95;2.10;;;;;;;12.12;100.00;97863.41;2602907;28;20049;-88
2023/09/23 03:49:58;;;;;;;2.50;2.13;;;;;;;12.06;100.00;97863.69;2609221;28;20055;-90
2023/09/23 03:51:14;;;;;;;2.53;2.10;;;;;;;12.06;100.00;97866.31;2598191;28;20049;-89
2023/09/23 03:52:30;;;;;;;2.72;1.83;;;;;;;12.00;100.00;97849.84;2602593;28;20052;-89
2023/09/23 03:53:48;;;;;;;2.35;2.10;;;;;;;11.91;100.00;97838.91;2597679;28;20041;-88
2023/09/23 03:55:04;;;;;;;2.92;2.38;;;;;;;11.82;100.00;97833.16;2602768;28;20115;-89
2023/09/23 03:56:24;;;;;;;2.65;2.30;;;;;;;11.85;100.00;97835.66;2609481;28;20780;-89
2023/09/23 03:57:40;;;;;;;2.28;2.00;;;;;;;12.02;100.00;97835.88;2597952;28;20037;-89
2023/09/23 03:58:56;;;;;;;2.80;2.28;;;;;;;11.95;100.00;97833.47;2601940;28;20127;-90
2023/09/23 04:00:16;;;;;;;2.78;2.10;;;;;;;11.94;100.00;97841.41;2609736;28;20431;-89
2023/09/23 04:01:32;;;;;;;3.35;2.28;;;;;;;11.92;100.00;97840.63;2609391;28;20095;-89
2023/09/23 04:02:48;;;;;;;3.45;2.25;;;;;;;11.84;100.00;97839.19;2609524;28;20041;-90
2023/09/23 04:04:06;;;;;;;4.35;2.65;;;;;;;11.95;100.00;97837.88;2609226;28;20114;-89
2023/09/23 04:05:25;;;;;;;3.72;2.72;;;;;;;11.93;100.00;97845.81;2609662;28;20566;-89
2023/09/23 04:06:41;;;;;;;2.97;2.33;;;;;;;11.98;100.00;97856.13;2597707;28;20081;-89
2023/09/23 04:07:56;;;;;;;2.80;2.33;;;;;;;12.00;100.00;97862.16;2602757;28;20562;-89
2023/09/23 04:09:13;;;;;;;4.05;2.20;;;;;;;12.00;100.00;97867.38;2609083;28;20068;-88
2023/09/23 04:10:30;;;;;;;3.03;2.35;;;;;;;11.99;100.00;97863.91;2609409;28;20128;-89
2023/09/23 04:11:46;;;;;;;4.13;2.30;;;;;;;12.03;100.00;97861.19;2609112;28;20567;-89
2023/09/23 04:13:01;;;;;;;2.60;2.20;;;;;;;12.07;100.00;97865.38;2609438;28;20099;-88
2023/09/23 04:14:17;;;;;;;5.35;2.20;;;;;;;12.03;100.00;97863.81;2608896;28;20045;-89
2023/09/23 04:15:33;;;;;;;3.38;2.28;;;;;;;12.08;100.00;97872.34;2609457;28;20071;-89
2023/09/23 04:16:48;;;;;;;2.85;2.10;;;;;;;12.08;100.00;97875.81;2609119;28;20052;-88
2023/09/23 04:18:05;;;;;;;2.50;2.08;;;;;;;12.09;100.00;97879.28;2609485;28;20056;-89
2023/09/23 04:19:20;;;;;;;2.30;2.00;;;;;;;12.04;100.00;97881.28;2609196;28;20041;-89
2023/09/23 04:20:36;;;;;;;2.25;2.00;;;;;;;12.03;100.00;97876.94;2609469;28;20052;-89
2023/09/23 04:21:52;;;;;;;2.55;2.00;;;;;;;11.98;100.00;97875.31;2609118;28;20072;-89
2023/09/23 04:23:07;;;;;;;1.48;1.30;;;;;;;12.23;100.00;97870.81;2609353;28;20079;-89
2023/09/23 04:24:23;;;;;;;3.13;1.83;;;;;;;12.26;100.00;97870.69;2609252;28;20499;-89
2023/09/23 04:25:39;;;;;;;2.53;1.90;;;;;;;12.23;100.00;97866.41;2609370;28;20048;-88
2023/09/23 04:26:55;;;;;;;2.45;1.73;;;;;;;12.20;100.00;97869.19;2597955;28;20057;-88
2023/09/23 04:28:10;;;;;;;2.47;1.90;;;;;;;12.14;100.00;97872.06;2602133;28;20052;-88
2023/09/23 04:29:27;;;;;;;1.98;1.77;;;;;;;12.12;100.00;97866.03;2609128;28;20569;-89
2023/09/23 04:30:45;;;;;;;4.43;2.08;;;;;;;12.08;100.00;97865.34;2597698;28;20509;-89
2023/09/23 04:32:00;;;;;;;1.67;1.58;;;;;;;12.07;100.00;97863.59;2602072;28;20495;-88
2023/09/23 04:33:16;;;;;;;1.85;1.55;;;;;;;12.13;100.00;97865.09;2609475;28;20060;-88
2023/09/23 04:34:35;;;;;;;1.60;1.48;;;;;;;12.14;100.00;97867.69;2608994;28;20075;-88
2023/09/23 04:35:51;;;;;;;1.65;1.48;;;;;;;12.33;100.00;97871.28;2608326;28;20080;-91
2023/09/23 04:37:07;;;;;;;2.75;1.50;;;;;;;12.34;100.00;97872.97;2609153;28;20060;-89
2023/09/23 04:38:24;;;;;;;2.42;1.50;;;;;;;12.41;100.00;97879.63;2608915;28;20045;-89
2023/09/23 04:39:40;;;;;;;2.53;1.60;;;;;;;12.42;100.00;97883.97;2609130;28;20048;-88
2023/09/23 04:40:55;;;;;;;2.58;1.60;;;;;;;12.34;100.00;97888.72;2609018;28;20051;-88
2023/09/23 04:42:11;;;;;;;2.95;1.73;;;;;;;12.25;100.00;97892.59;2609262;28;20049;-89
2023/09/23 04:43:30;;;;;;;1.65;1.50;;;;;;;12.19;100.00;97900.72;2597571;28;20492;-88
2023/09/23 04:44:46;;;;;;;2.00;1.55;;;;;;;12.15;100.00;97897.38;2602955;28;20503;-89
2023/09/23 04:46:02;;;;;;;4.63;1.70;;;;;;;12.22;100.00;97900.59;2608781;28;20044;-88
2023/09/23 04:47:19;;;;;;;1.63;1.52;;;;;;;12.13;100.00;97905.34;2608822;28;20053;-89
2023/09/23 04:48:35;;;;;;;2.50;1.42;;;;;;;12.09;100.00;97916.03;2608694;28;20049;-88
2023/09/23 04:49:51;;;;;;;3.17;1.92;;;;;;;12.20;100.00;97918.19;2609059;28;20049;-88
2023/09/23 04:51:08;;;;;;;3.17;2.13;;;;;;;12.12;100.00;97922.00;2608870;28;20615;-88
2023/09/23 04:52:24;;;;;;;3.75;2.13;;;;;;;12.03;100.00;97926.78;2609203;28;20041;-88
2023/09/23 04:53:39;;;;;;;2.78;1.77;;;;;;;11.91;100.00;97928.97;2608847;28;20060;-89
2023/09/23 04:54:55;;;;;;;2.05;1.52;;;;;;;11.83;100.00;97936.28;2608997;28;20350;-89
2023/09/23 04:56:16;;;;;;;1.92;1.70;;;;;;;11.78;100.00;97933.03;2609165;28;20400;-88
2023/09/23 04:57:32;;;;;;;3.05;1.73;;;;;;;11.68;100.00;97930.78;2606874;28;20512;-90
2023/09/23 04:58:48;;;;;;;1.98;1.70;;;;;;;11.67;100.00;97931.69;2608646;28;20079;-89
2023/09/23 05:00:04;;;;;;;2.83;1.73;;;;;;;11.61;100.00;97928.47;2609141;28;20189;-89
2023/09/23 05:01:20;;;;;;;3.55;1.90;;;;;;;11.54;100.00;97927.84;2597123;28;20045;-89
2023/09/23 05:02:36;;;;;;;2.22;1.85;;;;;;;11.61;100.00;97931.94;2602377;28;20049;-90
2023/09/23 05:03:52;;;;;;;2.65;1.92;;;;;;;11.56;100.00;97926.88;2608463;28;20119;-89
2023/09/23 05:05:09;;;;;;;3.13;2.00;;;;;;;11.60;100.00;97925.00;2597987;28;20057;-90
2023/09/23 05:06:25;;;;;;;2.30;1.70;;;;;;;11.54;100.00;97930.47;2601793;28;20045;-89
2023/09/23 05:07:41;;;;;;;3.45;2.13;;;;;;;11.52;100.00;97929.69;2609066;28;20455;-89
2023/09/23 05:08:58;;;;;;;4.10;2.13;;;;;;;11.54;100.00;97935.72;2608641;28;20500;-89
2023/09/23 05:10:14;;;;;;;4.68;1.85;;;;;;;11.57;100.00;97938.22;2608762;28;21030;-89
2023/09/23 05:11:31;;;;;;;3.15;1.83;;;;;;;11.54;100.00;97939.22;2608303;28;20053;-91
2023/09/23 05:12:47;;;;;;;1.90;1.70;;;;;;;11.55;100.00;97937.41;2608612;28;20059;-90
2023/09/23 05:14:05;;;;;;;3.72;2.30;;;;;;;11.52;100.00;97942.78;2608097;28;20055;-90
2023/09/23 05:15:21;;;;;;;2.92;1.98;;;;;;;11.50;100.00;97937.59;2608337;28;20052;-89
2023/09/23 05:16:37;;;;;;;2.95;2.20;;;;;;;11.49;100.00;97938.50;2608832;28;20044;-89
2023/09/23 05:17:54;;;;;;;2.03;1.85;;;;;;;11.49;100.00;97932.44;2608700;28;20045;-89
2023/09/23 05:19:11;;;;;;;2.85;2.17;;;;;;;11.51;100.00;97935.84;2608826;28;20045;-90
2023/09/23 05:20:28;;;;;;;2.70;2.10;;;;;;;11.56;100.00;97933.88;2608374;28;20148;-92
2023/09/23 05:21:44;;;;;;;5.13;2.55;;;;;;;11.63;100.00;97931.88;2609025;28;20053;-89
2023/09/23 05:23:04;;;;;;;5.95;2.50;;;;;;;11.66;100.00;97939.59;2608241;28;20080;-90
2023/09/23 05:24:20;;;;;;;3.15;2.20;;;;;;;11.59;100.00;97939.00;2608349;28;20052;-90
2023/09/23 05:25:41;;;;;;;3.40;2.40;;;;;;;11.65;100.00;97944.00;2608278;28;20076;-90
2023/09/23 05:26:56;;;;;;;5.90;2.40;;;;;;;11.55;100.00;97945.28;2608578;28;20045;-90
2023/09/23 05:28:12;;;;;;;2.80;2.10;;;;;;;11.64;100.00;97946.69;2608621;28;20052;-89
2023/09/23 05:29:27;;;;;;;4.55;2.58;;;;;;;11.70;100.00;97946.44;2608781;28;20049;-89
2023/09/23 05:30:43;;;;;;;2.72;2.25;;;;;;;11.63;100.00;97940.59;2608218;28;20178;-90
2023/09/23 05:32:00;;;;;;;3.60;2.42;;;;;;;11.71;100.00;97937.66;2597114;28;20076;-89
2023/09/23 05:33:15;;;;;;;4.80;2.95;;;;;;;11.80;100.00;97944.28;2601372;28;20462;-89
2023/09/23 05:34:31;;;;;;;4.05;2.60;;;;;;;11.80;100.00;97947.75;2608710;28;20061;-89
2023/09/23 05:35:47;;;;;;;3.40;2.33;;;;;;;11.85;100.00;97931.84;2608248;28;20908;-90
2023/09/23 05:37:02;;;;;;;2.60;2.20;;;;;;;11.91;100.00;97938.59;2608784;28;20496;-90
2023/09/23 05:38:19;;;;;;;2.85;2.20;;;;;;;11.92;100.00;97938.56;2596789;28;20637;-89
2023/09/23 05:39:35;;;;;;;3.00;2.25;;;;;;;11.95;100.00;97943.66;2601978;28;20133;-89
2023/09/23 05:40:51;;;;;;;2.50;2.30;;;;;;;12.03;100.00;97950.41;2608324;28;20060;-89
2023/09/23 05:42:07;;;;;;;2.92;2.35;;;;;;;12.18;100.00;97952.38;2609248;28;20420;-90
2023/09/23 05:43:22;;;;;;;2.95;2.25;;;;;;;12.33;100.00;97963.13;2597070;28;20046;-90
2023/09/23 05:44:39;;;;;;;4.93;2.58;;;;;;;12.35;100.00;97964.75;2611452;28;20064;-92
2023/09/23 05:45:55;;;;;;;4.22;2.80;;;;;;;12.43;100.00;97961.81;2603071;28;20058;-91
2023/09/23 05:47:10;;;;;;;18.02;3.20;;;;;;;12.39;100.00;97966.34;2601865;28;20397;-91
2023/09/23 05:48:26;;;;;;;46.30;4.28;;;;;;;12.40;100.00;97961.94;2610321;28;20508;-91
2023/09/23 05:49:44;;;;;;;45.47;4.95;;;;;;;12.33;100.00;97963.97;2599396;28;20576;-91
2023/09/23 05:51:04;;;;;;;159.32;8.98;;;;;;;12.32;100.00;97967.53;2604043;28;20045;-92
2023/09/23 05:52:20;;;;;;;50.58;4.15;;;;;;;12.32;100.00;97966.69;2610688;28;20041;-90
2023/09/23 05:53:36;;;;;;;34.03;3.45;;;;;;;12.29;100.00;97960.66;2598938;28;20523;-91
2023/09/23 05:54:51;;;;;;;47.33;4.18;;;;;;;12.27;100.00;97967.72;2603659;28;20132;-91